createdAt,value
2022-08-26T00:00:44.616Z,99914.88
2022-08-26T00:03:47.536Z,99908.19
2022-08-26T00:06:49.082Z,99913.56
2022-08-26T00:09:54.378Z,99915.19
2022-08-26T00:12:56.980Z,99912.75
2022-08-26T00:15:58.634Z,99908.94
2022-08-26T00:19:00.099Z,99913.56
2022-08-26T00:22:01.512Z,99912.50
2022-08-26T00:25:04.614Z,99912.59
2022-08-26T00:28:06.883Z,99907.03
2022-08-26T00:31:11.046Z,99909.88
2022-08-26T00:34:14.138Z,99916.94
2022-08-26T00:37:16.718Z,99912.84
2022-08-26T00:40:25.486Z,99916.47
2022-08-26T00:43:27.400Z,99920.28
2022-08-26T00:46:33.720Z,99914.19
2022-08-26T00:49:42.207Z,99912.50
2022-08-26T00:52:44.870Z,99913.00
2022-08-26T00:55:59.737Z,99904.97
2022-08-26T00:59:06.168Z,99904.97
2022-08-26T01:02:07.674Z,99895.06
2022-08-26T01:05:23.164Z,99903.50
2022-08-26T01:08:25.306Z,99893.41
2022-08-26T01:11:29.428Z,99893.78
2022-08-26T01:14:33.924Z,99896.66
2022-08-26T01:17:38.337Z,99888.00
2022-08-26T01:20:48.611Z,99894.50
2022-08-26T01:23:51.741Z,99899.59
2022-08-26T01:27:05.144Z,99901.75
2022-08-26T01:30:07.261Z,99907.84
2022-08-26T01:33:15.711Z,99899.88
2022-08-26T01:36:17.322Z,99895.53
2022-08-26T01:39:20.209Z,99896.19
2022-08-26T01:42:23.888Z,99900.81
2022-08-26T01:45:29.068Z,99901.13
2022-08-26T01:48:34.641Z,99899.34
2022-08-26T01:51:39.864Z,99899.47
2022-08-26T01:54:41.477Z,99908.16
2022-08-26T01:57:50.833Z,99904.91
2022-08-26T02:00:58.590Z,99907.13
2022-08-26T02:04:17.693Z,99916.44
2022-08-26T02:07:21.466Z,99909.25
2022-08-26T02:10:23.074Z,99910.78
2022-08-26T02:13:29.945Z,99907.63
2022-08-26T02:16:39.625Z,99924.66
2022-08-26T02:19:48.302Z,99913.97
2022-08-26T02:22:49.894Z,99916.63
2022-08-26T02:25:57.802Z,99917.03
2022-08-26T02:29:07.652Z,99919.53
2022-08-26T02:32:10.179Z,99919.34
2022-08-26T02:35:13.779Z,99920.88
2022-08-26T02:38:19.886Z,99912.81
2022-08-26T02:41:21.340Z,99912.28
2022-08-26T02:44:25.778Z,99908.91
2022-08-26T02:47:28.944Z,99904.97
2022-08-26T02:50:30.626Z,99905.84
2022-08-26T02:53:35.539Z,99895.06
2022-08-26T02:56:37.338Z,99893.41
2022-08-26T02:59:39.917Z,99895.72
2022-08-26T03:02:41.678Z,99891.72
2022-08-26T03:05:44.506Z,99893.47
2022-08-26T03:08:46.729Z,99884.13
2022-08-26T03:11:48.461Z,99896.38
2022-08-26T03:14:50.584Z,99894.91
2022-08-26T03:17:55.588Z,99892.81
2022-08-26T03:21:04.153Z,99904.97
2022-08-26T03:24:06.401Z,99904.44
2022-08-26T03:27:07.937Z,99896.91
2022-08-26T03:30:29.660Z,99901.06
2022-08-26T03:33:31.201Z,99901.69
2022-08-26T03:36:33.472Z,99907.16
2022-08-26T03:39:36.862Z,99907.94
2022-08-26T03:42:41.226Z,99904.38
2022-08-26T03:45:46.920Z,99906.59
2022-08-26T03:48:48.330Z,99910.19
2022-08-26T03:51:51.510Z,99918.06
2022-08-26T03:54:53.270Z,99916.25
2022-08-26T03:57:55.023Z,99917.78
2022-08-26T04:00:56.845Z,99913.00
2022-08-26T04:04:00.610Z,99924.53
2022-08-26T04:07:02.394Z,99919.66
2022-08-26T04:10:04.962Z,99916.44
2022-08-26T04:13:06.511Z,99918.50
2022-08-26T04:16:08.059Z,99915.84
2022-08-26T04:19:14.372Z,99913.19
2022-08-26T04:22:15.962Z,99914.25
2022-08-26T04:25:26.338Z,99919.34
2022-08-26T04:28:29.365Z,99915.84
2022-08-26T04:31:33.356Z,99908.84
2022-08-26T04:34:35.470Z,99911.72
2022-08-26T04:37:37.442Z,99903.09
2022-08-26T04:40:46.867Z,99903.66
2022-08-26T04:43:48.894Z,99905.13
2022-08-26T04:46:50.542Z,99916.34
2022-08-26T04:49:55.791Z,99911.97
2022-08-26T04:52:59.309Z,99917.00
2022-08-26T04:56:01.089Z,99922.09
2022-08-26T04:59:06.097Z,99920.16
2022-08-26T05:02:08.848Z,99924.81
2022-08-26T05:05:10.728Z,99926.25
2022-08-26T05:08:13.734Z,99930.13
2022-08-26T05:11:15.585Z,99936.16
2022-08-26T05:14:18.307Z,99934.13
2022-08-26T05:17:20.545Z,99934.44
2022-08-26T05:20:26.163Z,99932.06
2022-08-26T05:23:28.578Z,99941.50
2022-08-26T05:26:31.432Z,99939.56
2022-08-26T05:29:33.175Z,99935.13
2022-08-26T05:32:34.802Z,99936.56
2022-08-26T05:35:38.285Z,99941.06
2022-08-26T05:38:39.713Z,99939.34
2022-08-26T05:41:43.158Z,99947.78
2022-08-26T05:44:54.111Z,99956.31
2022-08-26T05:47:57.609Z,99947.41
2022-08-26T05:51:06.153Z,99950.84
2022-08-26T05:54:07.619Z,99953.06
2022-08-26T05:57:13.780Z,99961.97
2022-08-26T06:00:16.128Z,99946.88
2022-08-26T06:03:18.212Z,99952.56
2022-08-26T06:06:27.830Z,99947.44
2022-08-26T06:09:30.775Z,99959.31
2022-08-26T06:12:33.636Z,99967.94
2022-08-26T06:15:35.508Z,99977.03
2022-08-26T06:18:39.908Z,99989.94
2022-08-26T06:21:44.902Z,99984.72
2022-08-26T06:25:04.821Z,99985.69
2022-08-26T06:28:07.487Z,99988.44
2022-08-26T06:31:08.955Z,99996.09
2022-08-26T06:34:11.047Z,99993.50
2022-08-26T06:37:12.518Z,99993.13
2022-08-26T06:40:14.061Z,99982.00
2022-08-26T06:43:17.724Z,99985.59
2022-08-26T06:46:21.779Z,99997.72
2022-08-26T06:49:27.147Z,99994.06
2022-08-26T06:52:29.232Z,99989.97
2022-08-26T06:55:31.960Z,100003.31
2022-08-26T06:58:35.074Z,99977.59
2022-08-26T07:01:44.518Z,99979.13
2022-08-26T07:04:47.895Z,99977.66
2022-08-26T07:07:49.605Z,99990.00
2022-08-26T07:10:51.147Z,99997.31
2022-08-26T07:13:58.930Z,99996.13
2022-08-26T07:17:02.531Z,100001.78
2022-08-26T07:20:07.436Z,99995.13
2022-08-26T07:23:11.746Z,99998.06
2022-08-26T07:26:19.182Z,100000.28
2022-08-26T07:29:20.646Z,100004.38
2022-08-26T07:32:25.983Z,100000.25
2022-08-26T07:35:27.470Z,100001.41
2022-08-26T07:38:29.051Z,100000.47
2022-08-26T07:41:33.030Z,100010.63
2022-08-26T07:44:35.335Z,100014.63
2022-08-26T07:47:36.810Z,100013.31
2022-08-26T07:50:49.309Z,100007.22
2022-08-26T07:53:53.278Z,100004.91
2022-08-26T07:56:56.100Z,100002.78
2022-08-26T07:59:58.149Z,100003.69
2022-08-26T08:03:00.870Z,100009.38
2022-08-26T08:06:02.445Z,100010.47
2022-08-26T08:09:05.287Z,100005.72
2022-08-26T08:12:09.411Z,100006.03
2022-08-26T08:15:16.781Z,100001.41
2022-08-26T08:18:20.383Z,100003.34
2022-08-26T08:21:26.209Z,100005.72
2022-08-26T08:24:27.798Z,100010.94
2022-08-26T08:27:29.384Z,100005.19
2022-08-26T08:30:31.713Z,100004.00
2022-08-26T08:33:36.615Z,100004.91
2022-08-26T08:36:39.968Z,100005.31
2022-08-26T08:39:43.092Z,100003.09
2022-08-26T08:42:47.072Z,100010.31
2022-08-26T08:46:00.416Z,100009.63
2022-08-26T08:49:04.089Z,100004.78
2022-08-26T08:52:29.462Z,100013.66
2022-08-26T08:55:55.832Z,100012.91
2022-08-26T08:59:04.465Z,100013.66
2022-08-26T09:02:20.857Z,100021.91
2022-08-26T09:05:22.477Z,100022.53
2022-08-26T09:08:29.380Z,100014.19
2022-08-26T09:11:31.015Z,100006.25
2022-08-26T09:14:33.573Z,100017.91
2022-08-26T09:17:46.777Z,100008.88
2022-08-26T09:21:10.804Z,100003.81
2022-08-26T09:24:13.978Z,100002.53
2022-08-26T09:27:44.747Z,100008.50
2022-08-26T09:30:57.805Z,99997.19
2022-08-26T09:34:36.072Z,99991.00
2022-08-26T09:41:05.278Z,100001.97
2022-08-26T09:44:15.696Z,99997.75
2022-08-26T09:47:23.199Z,100002.00
2022-08-26T09:50:30.022Z,99996.16
2022-08-26T09:53:36.491Z,99987.00
2022-08-26T09:56:39.268Z,99978.63
2022-08-26T09:59:40.796Z,99973.28
2022-08-26T10:02:47.818Z,99966.78
2022-08-26T10:06:06.950Z,99958.72
2022-08-26T10:09:14.875Z,99957.13
2022-08-26T10:12:21.675Z,99960.84
2022-08-26T10:15:25.399Z,99960.94
2022-08-26T10:18:40.247Z,99964.38
2022-08-26T10:21:55.763Z,99951.94
2022-08-26T10:25:01.176Z,99946.59
2022-08-26T10:28:22.492Z,99939.53
2022-08-26T10:31:42.388Z,99934.19
2022-08-26T10:34:44.842Z,99934.88
2022-08-26T10:37:55.642Z,99932.09
2022-08-26T10:41:10.466Z,99934.06
2022-08-26T10:44:14.979Z,99941.81
2022-08-26T10:47:25.939Z,99943.66
2022-08-26T10:50:35.224Z,99934.50
2022-08-26T10:54:03.261Z,99926.41
2022-08-26T10:57:09.591Z,99925.69
2022-08-26T11:00:37.625Z,99927.19
2022-08-26T11:04:02.133Z,99922.97
2022-08-26T11:07:35.239Z,99926.28
2022-08-26T11:10:56.728Z,99910.88
2022-08-26T11:14:05.669Z,99909.09
2022-08-26T11:17:11.643Z,99913.44
2022-08-26T11:20:34.793Z,99914.00
2022-08-26T11:23:38.273Z,99918.34
2022-08-26T11:26:56.273Z,99925.81
2022-08-26T11:30:06.946Z,99924.97
2022-08-26T11:33:09.380Z,99912.50
2022-08-26T11:36:28.156Z,99908.28
2022-08-26T11:39:56.984Z,99897.66
2022-08-26T11:43:03.203Z,99897.53
2022-08-26T11:46:10.459Z,99899.84
2022-08-26T11:49:12.964Z,99901.84
2022-08-26T11:52:22.044Z,99899.53
2022-08-26T11:55:24.228Z,99898.75
2022-08-26T11:58:28.003Z,99891.09
2022-08-26T12:01:41.766Z,99895.56
2022-08-26T12:04:48.371Z,99900.53
2022-08-26T12:07:51.602Z,99894.66
2022-08-26T12:11:09.710Z,99894.44
2022-08-26T12:14:24.297Z,99883.53
2022-08-26T12:17:27.820Z,99869.59
2022-08-26T12:20:46.471Z,99862.69
2022-08-26T12:23:50.539Z,99858.16
2022-08-26T12:27:18.082Z,99855.53
2022-08-26T12:30:24.442Z,99840.16
2022-08-26T12:33:28.805Z,99843.56
2022-08-26T12:36:42.477Z,99845.38
2022-08-26T12:39:46.200Z,99845.09
2022-08-26T12:42:47.657Z,99840.97
2022-08-26T12:45:58.368Z,99848.41
2022-08-26T12:49:03.875Z,99834.97
2022-08-26T12:52:09.359Z,99839.34
2022-08-26T12:55:24.466Z,99829.59
2022-08-26T12:58:35.153Z,99831.31
2022-08-26T13:01:43.138Z,99828.53
2022-08-26T13:04:46.084Z,99824.88
2022-08-26T13:08:10.403Z,99819.59
2022-08-26T13:11:20.076Z,99815.84
2022-08-26T13:14:23.959Z,99811.44
2022-08-26T13:17:27.850Z,99798.88
2022-08-26T13:20:29.792Z,99793.41
2022-08-26T13:23:31.315Z,99779.19
2022-08-26T13:26:33.086Z,99793.94
2022-08-26T13:29:35.096Z,99791.47
2022-08-26T13:32:36.943Z,99782.47
2022-08-26T13:35:39.139Z,99767.09
2022-08-26T13:38:40.618Z,99778.91
2022-08-26T13:41:43.175Z,99768.94
2022-08-26T13:44:47.691Z,99766.22
2022-08-26T13:47:49.120Z,99758.94
2022-08-26T13:50:51.786Z,99760.72
2022-08-26T13:53:53.775Z,99765.28
2022-08-26T13:56:55.235Z,99766.16
2022-08-26T13:59:59.106Z,99751.66
2022-08-26T14:03:00.991Z,99757.00
2022-08-26T14:06:02.727Z,99759.72
2022-08-26T14:09:04.835Z,99768.91
2022-08-26T14:12:06.481Z,99766.22
2022-08-26T14:15:08.454Z,99763.50
2022-08-26T14:18:15.985Z,99760.75
2022-08-26T14:21:18.795Z,99756.22
2022-08-26T14:24:20.277Z,99750.78
2022-08-26T14:27:21.692Z,99761.66
2022-08-26T14:30:23.471Z,99760.75
2022-08-26T14:33:28.816Z,99765.28
2022-08-26T14:36:33.630Z,99754.38
2022-08-26T14:39:35.656Z,99757.97
2022-08-26T14:42:37.166Z,99749.66
2022-08-26T14:48:49.671Z,99742.22
2022-08-26T14:51:51.196Z,99737.06
2022-08-26T14:54:55.018Z,99725.44
2022-08-26T14:57:56.962Z,99724.56
2022-08-26T15:00:58.453Z,99734.53
2022-08-26T15:04:05.690Z,99727.28
2022-08-26T15:07:07.855Z,99740.88
2022-08-26T15:10:15.984Z,99739.97
2022-08-26T15:13:17.432Z,99740.84
2022-08-26T15:16:19.173Z,99752.63
2022-08-26T15:19:23.733Z,99759.88
2022-08-26T15:22:26.029Z,99761.69
2022-08-26T15:25:31.282Z,99764.38
2022-08-26T15:28:32.793Z,99771.50
2022-08-26T15:31:34.453Z,99773.44
2022-08-26T15:34:36.118Z,99778.91
2022-08-26T15:37:38.904Z,99766.22
2022-08-26T15:40:40.746Z,99761.69
2022-08-26T15:43:42.225Z,99768.06
2022-08-26T15:46:44.405Z,99760.72
2022-08-26T15:49:46.061Z,99759.75
2022-08-26T15:52:47.866Z,99770.63
2022-08-26T15:55:49.901Z,99779.72
2022-08-26T15:58:51.735Z,99797.72
2022-08-26T16:01:59.136Z,99790.47
2022-08-26T16:05:00.675Z,99794.78
2022-08-26T16:08:03.526Z,99794.66
2022-08-26T16:11:05.827Z,99799.19
2022-08-26T16:14:07.716Z,99803.56
2022-08-26T16:17:09.222Z,99817.34
2022-08-26T16:20:10.932Z,99812.75
2022-08-26T16:23:12.373Z,99814.41
2022-08-26T16:26:17.536Z,99824.38
2022-08-26T16:29:19.085Z,99821.66
2022-08-26T16:32:20.642Z,99830.34
2022-08-26T16:35:22.112Z,99832.22
2022-08-26T16:38:23.766Z,99842.03
2022-08-26T16:41:28.222Z,99840.03
2022-08-26T16:44:30.826Z,99839.69
2022-08-26T16:47:33.622Z,99846.56
2022-08-26T16:50:37.461Z,99847.34
2022-08-26T16:53:39.157Z,99846.00
2022-08-26T16:56:40.686Z,99841.81
2022-08-26T16:59:42.153Z,99835.16
2022-08-26T17:02:45.175Z,99843.03
2022-08-26T17:05:46.715Z,99844.75
2022-08-26T17:08:49.301Z,99863.31
2022-08-26T17:11:51.302Z,99861.00
2022-08-26T17:14:52.849Z,99869.09
2022-08-26T17:17:55.083Z,99873.66
2022-08-26T17:21:01.661Z,99876.81
2022-08-26T17:24:04.688Z,99883.84
2022-08-26T17:27:06.217Z,99883.66
2022-08-26T17:30:08.915Z,99888.84
2022-08-26T17:33:11.181Z,99877.88
2022-08-26T17:36:12.901Z,99880.47
2022-08-26T17:39:14.367Z,99874.31
2022-08-26T17:42:16.082Z,99870.91
2022-08-26T17:48:25.282Z,99880.88
2022-08-26T17:51:27.496Z,99885.28
2022-08-26T17:54:30.205Z,99883.25
2022-08-26T17:57:35.077Z,99889.25
2022-08-26T18:00:48.322Z,99894.47
2022-08-26T18:03:49.930Z,99902.38
2022-08-26T18:06:51.571Z,99905.16
2022-08-26T18:09:53.046Z,99901.25
2022-08-26T18:12:54.521Z,99901.03
2022-08-26T18:15:56.198Z,99898.44
2022-08-26T18:18:58.411Z,99897.06
2022-08-26T18:21:59.912Z,99890.84
2022-08-26T18:25:01.382Z,99878.88
2022-08-26T18:28:03.108Z,99880.53
2022-08-26T18:31:07.315Z,99891.06
2022-08-26T18:34:12.780Z,99894.84
2022-08-26T18:37:14.699Z,99903.78
2022-08-26T18:40:17.531Z,99904.94
2022-08-26T18:43:19.093Z,99917.88
2022-08-26T18:46:25.016Z,99914.94
2022-08-26T18:49:26.953Z,99929.34
2022-08-26T18:52:28.441Z,99941.13
2022-08-26T18:55:29.946Z,99941.53
2022-08-26T18:58:31.425Z,99932.50
2022-08-26T19:01:34.823Z,99930.63
2022-08-26T19:04:40.903Z,99946.06
2022-08-26T19:07:44.118Z,99939.75
2022-08-26T19:10:49.570Z,99943.75
2022-08-26T19:13:51.070Z,99947.44
2022-08-26T19:16:53.628Z,99953.81
2022-08-26T19:19:55.257Z,99956.38
2022-08-26T19:23:02.476Z,99965.88
2022-08-26T19:26:08.497Z,99968.19
2022-08-26T19:29:10.065Z,99973.34
2022-08-26T19:32:13.110Z,99978.34
2022-08-26T19:35:14.918Z,99981.78
2022-08-26T19:38:16.494Z,99979.16
2022-08-26T19:41:21.503Z,99980.91
2022-08-26T19:44:42.093Z,99979.03
2022-08-26T19:47:44.085Z,99983.75
2022-08-26T19:50:48.389Z,99981.16
2022-08-26T19:53:51.276Z,99983.50
2022-08-26T19:56:53.422Z,99987.06
2022-08-26T19:59:55.179Z,99981.84
2022-08-26T20:02:56.743Z,99987.03
2022-08-26T20:05:58.359Z,99987.31
2022-08-26T20:09:00.026Z,99984.91
2022-08-26T20:12:03.588Z,99995.09
2022-08-26T20:15:05.855Z,99993.16
2022-08-26T20:18:30.545Z,99998.09
2022-08-26T20:21:38.012Z,100004.72
2022-08-26T20:24:39.529Z,100007.25
2022-08-26T20:27:40.954Z,100009.19
2022-08-26T20:30:42.392Z,100007.66
2022-08-26T20:33:46.192Z,100009.16
2022-08-26T20:36:49.645Z,100010.97
2022-08-26T20:39:51.159Z,100008.81
2022-08-26T20:42:52.645Z,100004.13
2022-08-26T20:45:54.285Z,100001.41
2022-08-26T20:48:56.230Z,100005.34
2022-08-26T20:52:00.499Z,100011.09
2022-08-26T20:55:02.460Z,100003.97
2022-08-26T20:58:04.278Z,100009.22
2022-08-26T21:01:07.983Z,100006.66
2022-08-26T21:04:13.857Z,99999.13
2022-08-26T21:07:16.313Z,100008.84
2022-08-26T21:10:19.248Z,99991.75
2022-08-26T21:13:21.641Z,99995.63
2022-08-26T21:16:23.187Z,99986.75
2022-08-26T21:19:24.757Z,99984.47
2022-08-26T21:22:26.416Z,99987.03
2022-08-26T21:25:28.041Z,99985.38
2022-08-26T21:28:29.834Z,99990.88
2022-08-26T21:31:32.044Z,99995.13
2022-08-26T21:34:33.902Z,99995.47
2022-08-26T21:37:35.444Z,100006.56
2022-08-26T21:40:36.918Z,100008.59
2022-08-26T21:43:39.088Z,100015.00
2022-08-26T21:46:41.026Z,100022.78
2022-08-26T21:49:44.035Z,100024.94
2022-08-26T21:52:45.544Z,100026.81
2022-08-26T21:55:47.470Z,100033.53
2022-08-26T21:58:49.850Z,100029.00
2022-08-26T22:01:54.575Z,100037.16
2022-08-26T22:04:56.409Z,100035.09
2022-08-26T22:07:57.947Z,100042.88
2022-08-26T22:11:00.718Z,100042.75
2022-08-26T22:14:02.183Z,100050.81
2022-08-26T22:17:03.806Z,100049.88
2022-08-26T22:20:06.610Z,100043.34
2022-08-26T22:23:18.312Z,100050.06
2022-08-26T22:26:25.466Z,100048.38
2022-08-26T22:29:27.374Z,100044.66
2022-08-26T22:32:28.845Z,100046.03
2022-08-26T22:35:30.973Z,100047.28
2022-08-26T22:38:32.999Z,100039.97
2022-08-26T22:41:35.255Z,100039.25
2022-08-26T22:44:37.489Z,100044.03
2022-08-26T22:47:40.119Z,100043.84
2022-08-26T22:50:45.850Z,100041.34
2022-08-26T22:53:47.421Z,100043.06
2022-08-26T22:56:48.914Z,100046.53
2022-08-26T22:59:50.360Z,100048.25
2022-08-26T23:02:51.778Z,100047.81
2022-08-26T23:05:53.452Z,100047.75
2022-08-26T23:08:55.025Z,100042.81
2022-08-26T23:11:56.749Z,100048.34
2022-08-26T23:14:58.792Z,100042.53
2022-08-26T23:18:00.267Z,100050.75
2022-08-26T23:21:02.182Z,100056.25
2022-08-26T23:24:04.814Z,100059.03
2022-08-26T23:27:06.385Z,100057.25
2022-08-26T23:30:12.663Z,100050.88
2022-08-26T23:33:14.819Z,100057.81
2022-08-26T23:36:17.927Z,100055.97
2022-08-26T23:39:19.779Z,100055.06
2022-08-26T23:42:21.914Z,100040.94
2022-08-26T23:45:24.868Z,100052.66
2022-08-26T23:48:26.402Z,100049.44
2022-08-26T23:51:46.687Z,100050.38
2022-08-26T23:54:49.973Z,100050.38
2022-08-26T23:57:51.463Z,100039.63
